Time;durP1;ratioP1;P1;durP2;ratioP2;P2;SDS_P1;SDS_P2;PMS_P1;PMS_P2;Temp;Humidity;BMP_temperature;BMP_pressure;BME280_temperature;BME280_humidity;BME280_pressure;Samples;Min_cycle;Max_cycle;Signal;HPM_P1;HPM_P2
2023/09/14 00:00:08;;;;;;;3.22;1.65;;;;;;;;;;5056219;28;20021;-68
2023/09/14 00:02:33;;;;;;;;;;;;;;;;;;5056146;28;20078;-68
2023/09/14 00:04:58;;;;;;;2.80;1.57;;;;;;;;;;5055833;28;19916;-68
2023/09/14 00:07:24;;;;;;;4.35;1.80;;;;;;;;;;5055536;28;20025;-68
2023/09/14 00:09:49;;;;;;;2.97;1.77;;;;;;;;;;5055930;28;20107;-69
2023/09/14 00:12:14;;;;;;;2.33;1.73;;;;;;;;;;5055609;28;20017;-68
2023/09/14 00:14:39;;;;;;;3.13;1.75;;;;;;;;;;5055714;28;20489;-68
2023/09/14 00:17:06;;;;;;;3.22;1.70;;;;;;;;;;5054044;28;20025;-68
2023/09/14 00:19:31;;;;;;;3.13;1.58;;;;;;;;;;5055598;28;20032;-68
2023/09/14 00:21:56;;;;;;;2.85;2.45;;;;;;;;;;5054559;28;20029;-69
2023/09/14 00:24:21;;;;;;;3.67;2.20;;;;;;;;;;5055035;28;20428;-69
2023/09/14 00:26:47;;;;;;;2.15;1.48;;;;;;;;;;5037565;28;20024;-69
2023/09/14 00:29:12;;;;;;;2.80;1.25;;;;;;;;;;5055135;28;20024;-69
2023/09/14 00:31:38;;;;;;;3.63;1.88;;;;;;;;;;5055360;28;20017;-68
2023/09/14 00:34:04;;;;;;;2.47;1.70;;;;;;;;;;5052989;28;20021;-68
2023/09/14 00:36:30;;;;;;;3.60;1.60;;;;;;;;;;5055117;28;20025;-68
2023/09/14 00:38:55;;;;;;;3.10;1.60;;;;;;;;;;5044601;28;20188;-68
2023/09/14 00:41:20;;;;;;;3.15;2.03;;;;;;;;;;5054212;28;20116;-68
2023/09/14 00:43:46;;;;;;;3.80;1.80;;;;;;;;;;5044988;28;20108;-68
2023/09/14 00:46:11;;;;;;;8.13;2.35;;;;;;;;;;5055797;28;20033;-68
2023/09/14 00:48:37;;;;;;;2.30;1.70;;;;;;;;;;5054107;28;20029;-69
2023/09/14 00:51:03;;;;;;;4.45;2.05;;;;;;;;;;5037571;28;20043;-68
2023/09/14 00:53:28;;;;;;;2.58;1.50;;;;;;;;;;5053617;28;20395;-69
2023/09/14 00:55:54;;;;;;;3.20;1.40;;;;;;;;;;5036618;28;20475;-68
2023/09/14 00:58:20;;;;;;;2.50;1.50;;;;;;;;;;5053999;28;20110;-69
2023/09/14 01:00:46;;;;;;;3.05;1.35;;;;;;;;;;5056225;28;20048;-68
2023/09/14 01:03:13;;;;;;;2.65;1.55;;;;;;;;;;5053845;28;20484;-69
2023/09/14 01:05:40;;;;;;;3.25;1.40;;;;;;;;;;5053903;28;20383;-69
2023/09/14 01:08:05;;;;;;;1.92;1.40;;;;;;;;;;5054571;28;20021;-69
2023/09/14 01:10:30;;;;;;;4.18;1.98;;;;;;;;;;5053860;28;20123;-69
2023/09/14 01:12:57;;;;;;;3.88;1.75;;;;;;;;;;5053725;28;20363;-68
2023/09/14 01:15:30;;;;;;;2.33;1.83;;;;;;;;;;5054826;28;20063;-68
2023/09/14 01:18:04;;;;;;;2.75;1.80;;;;;;;;;;5053587;28;20426;-70
2023/09/14 01:21:03;;;;;;;4.38;1.80;;;;;;;;;;5053100;28;20506;-69
2023/09/14 01:23:37;;;;;;;2.65;1.60;;;;;;;;;;5053097;28;20028;-68
2023/09/14 01:26:02;;;;;;;2.85;1.85;;;;;;;;;;5054648;28;20060;-69
2023/09/14 01:28:28;;;;;;;3.05;2.00;;;;;;;;;;5054376;28;20044;-69
2023/09/14 01:30:53;;;;;;;4.55;1.90;;;;;;;;;;5053381;28;20029;-69
2023/09/14 01:33:21;;;;;;;4.47;1.95;;;;;;;;;;5054497;28;20222;-69
2023/09/14 01:35:51;;;;;;;2.33;1.63;;;;;;;;;;5054595;28;20398;-69
2023/09/14 01:38:17;;;;;;;2.83;1.80;;;;;;;;;;5052801;28;20017;-68
2023/09/14 01:40:44;;;;;;;2.88;1.67;;;;;;;;;;5053227;28;20497;-69
2023/09/14 01:43:10;;;;;;;2.17;1.33;;;;;;;;;;5036404;28;20024;-69
2023/09/14 01:45:36;;;;;;;1.85;1.58;;;;;;;;;;5053163;28;20029;-69
2023/09/14 01:48:01;;;;;;;5.32;1.45;;;;;;;;;;5054344;28;20021;-69
2023/09/14 01:50:26;;;;;;;3.30;1.95;;;;;;;;;;5053815;28;20079;-69
2023/09/14 01:52:53;;;;;;;3.20;1.80;;;;;;;;;;5054199;28;20467;-71
2023/09/14 01:55:18;;;;;;;4.25;1.92;;;;;;;;;;5052884;28;20036;-70
2023/09/14 01:57:45;;;;;;;2.67;1.70;;;;;;;;;;5054126;28;20025;-69
2023/09/14 02:00:10;;;;;;;2.65;1.50;;;;;;;;;;5052827;28;20025;-71
2023/09/14 02:02:36;;;;;;;2.45;1.77;;;;;;;;;;5052819;28;20035;-71
2023/09/14 02:05:01;;;;;;;3.03;1.60;;;;;;;;;;5051556;28;20035;-71
2023/09/14 02:07:26;;;;;;;4.50;2.30;;;;;;;;;;5054105;28;20025;-71
2023/09/14 02:09:52;;;;;;;3.63;1.85;;;;;;;;;;5053821;28;20437;-71
2023/09/14 02:12:18;;;;;;;2.85;1.58;;;;;;;;;;5054183;28;20025;-71
2023/09/14 02:14:43;;;;;;;3.80;2.20;;;;;;;;;;5053770;28;20385;-71
2023/09/14 02:17:08;;;;;;;2.25;1.45;;;;;;;;;;5053267;28;20036;-70
2023/09/14 02:19:33;;;;;;;3.10;1.88;;;;;;;;;;5053047;28;20028;-71
2023/09/14 02:21:59;;;;;;;3.92;1.63;;;;;;;;;;5054758;28;20502;-71
2023/09/14 02:24:24;;;;;;;4.22;1.85;;;;;;;;;;5054552;28;20147;-71
2023/09/14 02:26:51;;;;;;;2.70;1.63;;;;;;;;;;5054131;28;20387;-71
2023/09/14 02:29:17;;;;;;;3.63;2.17;;;;;;;;;;5053064;28;20029;-71
2023/09/14 02:31:42;;;;;;;2.38;1.48;;;;;;;;;;5052285;28;20402;-71
2023/09/14 02:34:08;;;;;;;5.20;2.03;;;;;;;;;;5052211;28;20017;-71
2023/09/14 02:36:33;;;;;;;3.47;1.67;;;;;;;;;;5052509;28;20021;-71
2023/09/14 02:38:58;;;;;;;3.72;1.90;;;;;;;;;;5052560;28;20025;-71
2023/09/14 02:41:24;;;;;;;2.67;1.90;;;;;;;;;;5052968;28;20024;-71
2023/09/14 02:43:49;;;;;;;2.90;1.55;;;;;;;;;;5053821;28;20021;-71
2023/09/14 02:46:14;;;;;;;4.20;1.80;;;;;;;;;;5052103;28;20087;-71
2023/09/14 02:48:40;;;;;;;3.85;1.80;;;;;;;;;;5053306;28;20060;-71
2023/09/14 02:51:05;;;;;;;1.70;1.25;;;;;;;;;;5053277;28;20455;-70
2023/09/14 02:53:30;;;;;;;2.38;1.63;;;;;;;;;;5052677;28;20568;-71
2023/09/14 02:55:56;;;;;;;1.85;1.50;;;;;;;;;;5053220;28;20037;-71
2023/09/14 02:58:22;;;;;;;2.60;1.70;;;;;;;;;;5052214;28;20017;-71
2023/09/14 03:00:48;;;;;;;2.40;1.52;;;;;;;;;;5051694;28;20074;-71
2023/09/14 03:03:13;;;;;;;4.20;1.83;;;;;;;;;;5052994;28;20017;-71
2023/09/14 03:05:38;;;;;;;4.15;1.88;;;;;;;;;;5052120;28;20032;-71
2023/09/14 03:08:04;;;;;;;3.42;1.73;;;;;;;;;;5052129;28;20033;-71
2023/09/14 03:10:29;;;;;;;3.47;2.03;;;;;;;;;;5053236;28;20024;-71
2023/09/14 03:12:54;;;;;;;2.65;1.88;;;;;;;;;;5051304;28;20036;-71
2023/09/14 03:15:20;;;;;;;2.03;1.23;;;;;;;;;;5054060;28;20059;-71
2023/09/14 03:17:45;;;;;;;2.35;1.95;;;;;;;;;;5057155;28;20028;-70
2023/09/14 03:20:10;;;;;;;2.75;1.80;;;;;;;;;;5056682;28;20393;-70
2023/09/14 03:22:36;;;;;;;3.83;1.70;;;;;;;;;;5055760;28;20036;-71
2023/09/14 03:25:02;;;;;;;2.05;1.50;;;;;;;;;;5056922;28;20083;-71
2023/09/14 03:27:27;;;;;;;3.30;1.95;;;;;;;;;;5056896;28;20032;-71
2023/09/14 03:29:52;;;;;;;2.90;2.22;;;;;;;;;;5056875;28;20017;-71
2023/09/14 03:32:18;;;;;;;4.00;1.70;;;;;;;;;;5056327;28;20081;-70
2023/09/14 03:34:43;;;;;;;2.50;1.65;;;;;;;;;;5055752;28;20032;-71
2023/09/14 03:37:08;;;;;;;2.25;1.60;;;;;;;;;;5056771;28;20112;-71
2023/09/14 03:39:34;;;;;;;2.10;1.63;;;;;;;;;;5056942;28;20021;-70
2023/09/14 03:41:59;;;;;;;4.13;2.47;;;;;;;;;;5056299;28;20021;-70
2023/09/14 03:44:24;;;;;;;3.85;2.25;;;;;;;;;;5055200;28;20435;-71
2023/09/14 03:46:50;;;;;;;2.45;2.15;;;;;;;;;;5056595;28;20116;-71
2023/09/14 03:49:15;;;;;;;2.72;1.80;;;;;;;;;;5055529;28;20043;-70
2023/09/14 03:51:40;;;;;;;2.75;1.80;;;;;;;;;;5055334;28;20475;-71
2023/09/14 03:54:06;;;;;;;3.78;2.03;;;;;;;;;;5056338;28;20096;-71
2023/09/14 03:56:31;;;;;;;3.38;1.73;;;;;;;;;;5056215;28;20050;-70
2023/09/14 03:58:56;;;;;;;2.47;2.05;;;;;;;;;;5055314;28;20112;-71
2023/09/14 04:01:22;;;;;;;6.45;2.80;;;;;;;;;;5047733;28;20483;-71
2023/09/14 04:03:47;;;;;;;3.97;2.17;;;;;;;;;;5042156;28;20387;-70
2023/09/14 04:06:15;;;;;;;4.30;1.90;;;;;;;;;;5045765;28;20030;-70
2023/09/14 04:08:41;;;;;;;5.45;2.40;;;;;;;;;;5038917;28;20079;-71
2023/09/14 04:11:06;;;;;;;2.95;2.15;;;;;;;;;;5035066;28;20037;-71
2023/09/14 04:13:33;;;;;;;5.53;1.92;;;;;;;;;;5042786;28;20056;-70
2023/09/14 04:16:00;;;;;;;3.88;2.15;;;;;;;;;;5055339;28;20028;-71
2023/09/14 04:18:27;;;;;;;3.83;1.95;;;;;;;;;;5054614;28;20028;-70
2023/09/14 04:20:53;;;;;;;3.40;2.22;;;;;;;;;;5051983;28;20075;-71
2023/09/14 04:23:18;;;;;;;3.40;2.10;;;;;;;;;;5055272;28;20433;-71
2023/09/14 04:25:47;;;;;;;3.67;2.15;;;;;;;;;;5040746;28;20029;-71
2023/09/14 04:28:16;;;;;;;3.88;2.05;;;;;;;;;;5035009;28;20033;-71
2023/09/14 04:30:43;;;;;;;4.15;2.08;;;;;;;;;;5047401;28;20093;-72
2023/09/14 04:33:09;;;;;;;4.30;2.10;;;;;;;;;;5054047;28;20057;-71
2023/09/14 04:35:34;;;;;;;3.85;1.80;;;;;;;;;;5055434;28;20033;-71
2023/09/14 04:37:59;;;;;;;2.42;1.73;;;;;;;;;;5054382;28;20112;-71
2023/09/14 04:40:25;;;;;;;5.68;1.88;;;;;;;;;;5055103;28;20494;-71
2023/09/14 04:42:50;;;;;;;4.75;2.35;;;;;;;;;;5054366;28;20474;-72
2023/09/14 04:45:15;;;;;;;2.97;1.83;;;;;;;;;;5053653;28;20033;-71
2023/09/14 04:47:41;;;;;;;3.45;1.88;;;;;;;;;;5054194;28;20021;-71
2023/09/14 04:50:06;;;;;;;2.88;1.63;;;;;;;;;;5053873;28;20025;-71
2023/09/14 04:52:32;;;;;;;3.28;1.92;;;;;;;;;;5053803;28;20509;-72
2023/09/14 04:54:57;;;;;;;3.63;2.00;;;;;;;;;;5055043;28;20025;-71
2023/09/14 04:57:24;;;;;;;4.32;2.30;;;;;;;;;;5054600;28;20478;-71
2023/09/14 04:59:50;;;;;;;3.50;2.08;;;;;;;;;;5048311;28;20025;-72
2023/09/14 05:02:15;;;;;;;4.40;2.72;;;;;;;;;;5043010;28;20402;-71
2023/09/14 05:04:40;;;;;;;3.38;1.83;;;;;;;;;;5036303;28;20498;-71
2023/09/14 05:07:05;;;;;;;4.63;2.20;;;;;;;;;;5034943;28;20029;-71
2023/09/14 05:09:31;;;;;;;4.80;2.65;;;;;;;;;;5033570;28;20114;-71
2023/09/14 05:11:56;;;;;;;3.28;1.48;;;;;;;;;;5040256;28;20029;-71
2023/09/14 05:14:21;;;;;;;2.55;1.60;;;;;;;;;;5035024;28;20047;-71
2023/09/14 05:16:47;;;;;;;2.97;1.77;;;;;;;;;;5034501;28;20056;-71
2023/09/14 05:19:12;;;;;;;4.88;2.40;;;;;;;;;;5034529;28;20025;-70
2023/09/14 05:21:37;;;;;;;3.40;2.38;;;;;;;;;;5033215;28;20106;-71
2023/09/14 05:24:03;;;;;;;4.70;2.35;;;;;;;;;;5033086;28;20109;-71
2023/09/14 05:26:28;;;;;;;5.90;2.45;;;;;;;;;;5034802;28;20029;-71
2023/09/14 05:28:53;;;;;;;4.03;2.13;;;;;;;;;;5041066;28;20039;-71
2023/09/14 05:31:18;;;;;;;4.63;2.42;;;;;;;;;;5036865;28;20163;-70
2023/09/14 05:33:44;;;;;;;4.25;2.40;;;;;;;;;;5032928;28;20029;-68
2023/09/14 05:36:10;;;;;;;3.72;2.08;;;;;;;;;;5034161;28;20021;-68
2023/09/14 05:38:35;;;;;;;4.38;2.20;;;;;;;;;;5034345;28;20029;-68
2023/09/14 05:41:00;;;;;;;10.18;2.65;;;;;;;;;;5033902;28;20029;-68
2023/09/14 05:43:25;;;;;;;3.65;2.28;;;;;;;;;;5034016;28;20018;-68
2023/09/14 05:45:51;;;;;;;4.75;2.50;;;;;;;;;;5016370;28;20491;-71
2023/09/14 05:48:16;;;;;;;4.80;2.67;;;;;;;;;;5045205;28;20025;-71
2023/09/14 05:50:41;;;;;;;4.18;2.25;;;;;;;;;;5053729;28;20071;-71
2023/09/14 05:53:07;;;;;;;6.53;2.00;;;;;;;;;;5053037;28;20502;-71
2023/09/14 05:55:32;;;;;;;5.50;1.90;;;;;;;;;;5054013;28;20410;-71
2023/09/14 05:57:57;;;;;;;4.10;2.00;;;;;;;;;;5054025;28;20028;-71
2023/09/14 06:00:23;;;;;;;19.33;3.65;;;;;;;;;;5052713;28;20108;-71
2023/09/14 06:02:48;;;;;;;7.53;2.45;;;;;;;;;;5054650;28;20028;-71
2023/09/14 06:05:14;;;;;;;4.28;2.45;;;;;;;;;;5053503;28;20096;-71
2023/09/14 06:07:39;;;;;;;4.82;2.00;;;;;;;;;;5045168;28;20458;-71
2023/09/14 06:10:05;;;;;;;6.05;2.50;;;;;;;;;;5039025;28;20022;-71
2023/09/14 06:12:31;;;;;;;4.75;2.22;;;;;;;;;;5031775;28;20040;-72
2023/09/14 06:14:59;;;;;;;3.45;2.05;;;;;;;;;;5037122;28;22226;-71
2023/09/14 06:17:24;;;;;;;6.10;2.20;;;;;;;;;;5035397;28;20043;-73
2023/09/14 06:19:50;;;;;;;6.07;2.40;;;;;;;;;;5048826;28;20033;-72
2023/09/14 06:22:15;;;;;;;5.32;2.28;;;;;;;;;;5032036;28;20021;-72
2023/09/14 06:24:41;;;;;;;4.15;2.17;;;;;;;;;;5033523;28;20026;-72
2023/09/14 06:27:06;;;;;;;6.38;2.53;;;;;;;;;;5046381;28;20033;-72
2023/09/14 06:29:31;;;;;;;4.05;2.22;;;;;;;;;;5051851;28;20027;-72
2023/09/14 06:31:57;;;;;;;6.88;2.25;;;;;;;;;;5049154;28;20029;-73
2023/09/14 06:34:22;;;;;;;5.38;2.10;;;;;;;;;;5051857;28;20016;-72
2023/09/14 06:36:47;;;;;;;4.00;2.45;;;;;;;;;;5034873;28;20053;-71
2023/09/14 06:39:13;;;;;;;4.10;2.13;;;;;;;;;;5032962;28;20104;-72
2023/09/14 06:41:39;;;;;;;4.78;2.05;;;;;;;;;;5031895;28;20029;-72
2023/09/14 06:44:05;;;;;;;4.00;2.17;;;;;;;;;;5031613;28;20610;-72
2023/09/14 06:46:30;;;;;;;6.85;2.67;;;;;;;;;;5038889;28;20033;-72
2023/09/14 06:48:55;;;;;;;5.13;2.40;;;;;;;;;;5034120;28;20028;-72
2023/09/14 06:51:20;;;;;;;4.07;2.28;;;;;;;;;;5030758;28;20038;-73
2023/09/14 06:53:46;;;;;;;5.60;2.38;;;;;;;;;;5039707;28;20021;-71
2023/09/14 06:56:11;;;;;;;4.53;1.88;;;;;;;;;;5032195;28;20091;-72
2023/09/14 06:58:37;;;;;;;8.90;3.00;;;;;;;;;;5037738;28;20031;-71
2023/09/14 07:01:04;;;;;;;3.30;2.15;;;;;;;;;;5044554;28;20513;-72
2023/09/14 07:03:30;;;;;;;5.60;1.88;;;;;;;;;;5031117;28;20437;-72
2023/09/14 07:05:56;;;;;;;6.95;2.08;;;;;;;;;;5048206;28;20056;-71
2023/09/14 07:08:21;;;;;;;8.43;2.30;;;;;;;;;;5052066;28;20102;-71
2023/09/14 07:10:46;;;;;;;3.20;2.22;;;;;;;;;;5051112;28;20495;-72
2023/09/14 07:13:11;;;;;;;6.18;2.03;;;;;;;;;;5052547;28;20439;-71
2023/09/14 07:15:37;;;;;;;6.78;2.28;;;;;;;;;;5050859;28;20090;-71
2023/09/14 07:18:02;;;;;;;5.72;1.92;;;;;;;;;;5052025;28;20056;-71
2023/09/14 07:20:28;;;;;;;5.85;1.85;;;;;;;;;;5052048;28;20028;-71
2023/09/14 07:22:54;;;;;;;3.95;1.60;;;;;;;;;;5045142;28;20025;-71
2023/09/14 07:25:19;;;;;;;4.82;1.73;;;;;;;;;;5032270;28;20038;-72
2023/09/14 07:27:44;;;;;;;4.45;1.42;;;;;;;;;;5034317;28;20025;-72
2023/09/14 07:30:12;;;;;;;4.03;1.23;;;;;;;;;;5037038;28;20451;-72
2023/09/14 07:32:39;;;;;;;4.20;1.50;;;;;;;;;;5040950;28;20036;-72
2023/09/14 07:35:05;;;;;;;4.25;1.90;;;;;;;;;;5032174;28;20030;-72
2023/09/14 07:37:31;;;;;;;4.97;1.60;;;;;;;;;;5031829;28;20039;-72
2023/09/14 07:39:56;;;;;;;4.40;1.80;;;;;;;;;;5052149;28;20021;-69
2023/09/14 07:42:21;;;;;;;2.83;1.40;;;;;;;;;;5050679;28;20471;-69
2023/09/14 07:44:46;;;;;;;2.63;1.95;;;;;;;;;;5043597;28;20025;-69
2023/09/14 07:47:12;;;;;;;4.60;2.00;;;;;;;;;;5051290;28;20099;-69
2023/09/14 07:49:37;;;;;;;4.55;1.75;;;;;;;;;;5052070;28;20032;-69
2023/09/14 07:52:03;;;;;;;3.50;1.20;;;;;;;;;;5052244;28;20491;-69
2023/09/14 07:54:28;;;;;;;6.07;1.55;;;;;;;;;;5051546;28;20087;-69
2023/09/14 07:56:53;;;;;;;4.38;2.10;;;;;;;;;;5051522;28;20037;-69
2023/09/14 07:59:18;;;;;;;4.82;2.03;;;;;;;;;;5049887;28;20021;-69
2023/09/14 08:01:44;;;;;;;2.53;1.48;;;;;;;;;;5047381;28;20029;-70
2023/09/14 08:04:09;;;;;;;4.47;1.60;;;;;;;;;;5059123;28;20040;-69
2023/09/14 08:06:34;;;;;;;2.90;1.80;;;;;;;;;;5059240;28;20037;-70
2023/09/14 08:09:01;;;;;;;3.47;1.60;;;;;;;;;;5048720;28;20483;-69
2023/09/14 08:11:27;;;;;;;2.80;1.33;;;;;;;;;;5055306;28;20025;-69
2023/09/14 08:13:53;;;;;;;7.55;1.70;;;;;;;;;;5052620;28;20016;-70
2023/09/14 08:16:18;;;;;;;8.07;1.63;;;;;;;;;;5037493;28;20120;-70
2023/09/14 08:18:43;;;;;;;4.13;1.58;;;;;;;;;;5034691;28;20028;-70
2023/09/14 08:21:09;;;;;;;15.15;2.00;;;;;;;;;;5034057;28;20024;-69
2023/09/14 08:23:35;;;;;;;7.97;1.73;;;;;;;;;;5033682;28;20026;-70
2023/09/14 08:26:04;;;;;;;6.35;1.90;;;;;;;;;;5038740;28;20057;-69
2023/09/14 08:28:30;;;;;;;5.15;3.30;;;;;;;;;;5040874;28;20051;-69
2023/09/14 08:30:55;;;;;;;2.20;1.33;;;;;;;;;;5033239;28;20476;-69
2023/09/14 08:33:20;;;;;;;4.00;1.60;;;;;;;;;;5037936;28;20093;-70
2023/09/14 08:35:46;;;;;;;5.47;2.20;;;;;;;;;;5053793;28;20087;-70
2023/09/14 08:38:11;;;;;;;7.50;1.60;;;;;;;;;;5049572;28;20112;-70
2023/09/14 08:40:38;;;;;;;5.78;1.80;;;;;;;;;;5034937;28;20096;-70
2023/09/14 08:43:12;;;;;;;2.90;2.38;;;;;;;;;;5016405;28;20096;-70
2023/09/14 08:45:37;;;;;;;4.50;1.52;;;;;;;;;;5050773;28;20029;-69
2023/09/14 08:48:03;;;;;;;3.47;1.70;;;;;;;;;;5053415;28;20021;-70
2023/09/14 08:50:30;;;;;;;11.65;1.63;;;;;;;;;;5053327;28;20021;-70
2023/09/14 08:52:56;;;;;;;4.22;2.30;;;;;;;;;;5053679;28;20028;-70
2023/09/14 08:55:24;;;;;;;4.95;1.48;;;;;;;;;;5054191;28;20032;-70
2023/09/14 08:57:50;;;;;;;3.72;1.48;;;;;;;;;;5054519;28;20021;-70
2023/09/14 09:00:17;;;;;;;3.15;1.60;;;;;;;;;;5053363;28;20036;-70
2023/09/14 09:02:48;;;;;;;2.63;1.30;;;;;;;;;;5053523;28;20025;-70
2023/09/14 09:05:14;;;;;;;3.65;1.35;;;;;;;;;;5054497;28;20044;-70
2023/09/14 09:07:43;;;;;;;6.88;1.58;;;;;;;;;;5054037;28;20081;-70
2023/09/14 09:10:17;;;;;;;4.68;1.58;;;;;;;;;;5049623;28;20025;-70
2023/09/14 09:12:45;;;;;;;3.80;1.30;;;;;;;;;;5054003;28;20479;-69
2023/09/14 09:15:10;;;;;;;7.30;2.05;;;;;;;;;;5052778;28;20054;-70
2023/09/14 09:17:40;;;;;;;6.60;1.40;;;;;;;;;;5050342;28;20029;-70
2023/09/14 09:20:19;;;;;;;3.42;1.55;;;;;;;;;;5047333;28;20068;-70
2023/09/14 09:22:45;;;;;;;8.15;1.63;;;;;;;;;;5036650;28;20028;-70
2023/09/14 09:25:11;;;;;;;7.55;2.03;;;;;;;;;;5052162;28;20029;-70
2023/09/14 09:27:39;;;;;;;4.30;1.20;;;;;;;;;;5054294;28;20099;-70
2023/09/14 09:30:05;;;;;;;4.60;1.42;;;;;;;;;;5054124;28;20035;-70
2023/09/14 09:32:30;;;;;;;5.72;1.42;;;;;;;;;;5055647;28;20028;-70
2023/09/14 09:34:59;;;;;;;8.27;2.22;;;;;;;;;;5053618;28;20075;-70
2023/09/14 09:37:25;;;;;;;8.85;1.70;;;;;;;;;;5048259;28;20117;-69
2023/09/14 09:39:51;;;;;;;4.28;1.60;;;;;;;;;;5051995;28;20056;-69
2023/09/14 09:42:18;;;;;;;2.33;1.30;;;;;;;;;;5052510;28;20021;-69
2023/09/14 09:44:44;;;;;;;3.38;1.13;;;;;;;;;;5040559;28;20105;-69
2023/09/14 09:47:12;;;;;;;1.33;1.13;;;;;;;;;;5033597;28;20025;-68
2023/09/14 09:49:38;;;;;;;4.35;1.60;;;;;;;;;;5031925;28;20037;-68
2023/09/14 09:52:03;;;;;;;11.50;1.88;;;;;;;;;;5032068;28;20029;-68
2023/09/14 09:54:30;;;;;;;2.72;1.23;;;;;;;;;;5035138;28;20057;-69
2023/09/14 09:56:56;;;;;;;4.30;1.33;;;;;;;;;;5039869;28;20031;-69
2023/09/14 09:59:25;;;;;;;3.92;1.45;;;;;;;;;;5048719;28;20033;-69
2023/09/14 10:01:51;;;;;;;6.20;1.60;;;;;;;;;;5043496;28;20376;-69
2023/09/14 10:04:17;;;;;;;5.18;1.55;;;;;;;;;;5052954;28;20090;-69
2023/09/14 10:06:50;;;;;;;5.88;1.05;;;;;;;;;;5034362;28;20035;-69
2023/09/14 10:09:15;;;;;;;2.47;1.02;;;;;;;;;;5046983;28;20051;-69
2023/09/14 10:11:41;;;;;;;4.20;1.52;;;;;;;;;;5031785;28;20018;-69
2023/09/14 10:14:09;;;;;;;4.25;1.10;;;;;;;;;;5043759;28;20078;-69
2023/09/14 10:16:42;;;;;;;5.43;1.40;;;;;;;;;;5051780;28;20025;-69
2023/09/14 10:19:08;;;;;;;4.00;1.33;;;;;;;;;;5034870;28;20083;-69
2023/09/14 10:21:36;;;;;;;4.03;1.20;;;;;;;;;;5051651;28;20390;-69
2023/09/14 10:24:05;;;;;;;3.38;1.30;;;;;;;;;;5050676;28;20071;-68
2023/09/14 10:26:30;;;;;;;4.22;1.88;;;;;;;;;;5050719;28;20402;-69
2023/09/14 10:28:56;;;;;;;9.65;1.40;;;;;;;;;;5051666;28;20021;-68
2023/09/14 10:31:23;;;;;;;5.35;1.55;;;;;;;;;;5051200;28;20129;-68
2023/09/14 10:33:49;;;;;;;7.03;1.55;;;;;;;;;;5051667;28;20390;-69
2023/09/14 10:36:15;;;;;;;2.38;1.00;;;;;;;;;;5052243;28;20052;-69
2023/09/14 10:38:44;;;;;;;3.90;1.90;;;;;;;;;;5050753;28;20121;-72
2023/09/14 10:41:11;;;;;;;15.52;1.63;;;;;;;;;;5051436;28;20078;-69
2023/09/14 10:43:37;;;;;;;6.75;1.42;;;;;;;;;;5051118;28;20078;-72
2023/09/14 10:46:06;;;;;;;7.38;2.35;;;;;;;;;;5051703;28;20136;-71
2023/09/14 10:48:32;;;;;;;4.15;1.73;;;;;;;;;;5051256;28;20158;-71
2023/09/14 10:50:58;;;;;;;7.25;2.08;;;;;;;;;;5043686;28;20453;-72
2023/09/14 10:53:24;;;;;;;4.03;1.52;;;;;;;;;;5031383;28;20399;-72
2023/09/14 10:55:49;;;;;;;3.72;1.35;;;;;;;;;;5032746;28;20032;-72
2023/09/14 10:58:17;;;;;;;3.67;1.30;;;;;;;;;;5040343;28;20040;-71
2023/09/14 11:00:43;;;;;;;6.25;1.83;;;;;;;;;;5032680;28;20075;-71
2023/09/14 11:03:09;;;;;;;2.80;1.10;;;;;;;;;;5050097;28;20534;-70
2023/09/14 11:05:47;;;;;;;3.75;1.20;;;;;;;;;;5049921;28;20111;-71
2023/09/14 11:08:14;;;;;;;2.80;1.30;;;;;;;;;;5052818;28;20074;-71
2023/09/14 11:10:55;;;;;;;1.98;1.15;;;;;;;;;;5040380;28;20021;-71
2023/09/14 11:13:21;;;;;;;2.85;1.40;;;;;;;;;;5032317;28;20018;-71
2023/09/14 11:15:47;;;;;;;10.10;1.83;;;;;;;;;;5034464;28;20105;-70
2023/09/14 11:18:19;;;;;;;3.47;1.30;;;;;;;;;;5051513;28;20074;-71
2023/09/14 11:20:45;;;;;;;6.57;1.35;;;;;;;;;;5051822;28;20028;-71
2023/09/14 11:23:10;;;;;;;5.15;1.88;;;;;;;;;;5042167;28;20030;-71
2023/09/14 11:25:41;;;;;;;4.97;1.35;;;;;;;;;;5031384;28;20032;-71
2023/09/14 11:28:26;;;;;;;5.45;1.33;;;;;;;;;;5046309;28;20029;-70
2023/09/14 11:30:51;;;;;;;5.18;1.40;;;;;;;;;;5033048;28;20087;-71
2023/09/14 11:33:17;;;;;;;5.45;1.33;;;;;;;;;;5031524;28;20112;-70
2023/09/14 11:35:47;;;;;;;5.38;2.00;;;;;;;;;;5050408;28;20100;-71
2023/09/14 11:38:15;;;;;;;4.00;1.20;;;;;;;;;;5055604;28;20025;-71
2023/09/14 11:40:41;;;;;;;1.73;1.35;;;;;;;;;;5056958;28;20390;-71
2023/09/14 11:43:06;;;;;;;3.60;1.33;;;;;;;;;;5056945;28;20021;-71
2023/09/14 11:45:38;;;;;;;4.40;1.23;;;;;;;;;;5055628;28;20024;-71
2023/09/14 11:48:05;;;;;;;5.38;1.40;;;;;;;;;;5055108;28;20078;-71
2023/09/14 11:50:31;;;;;;;3.35;1.23;;;;;;;;;;5037906;28;20025;-71
2023/09/14 11:52:57;;;;;;;8.85;1.83;;;;;;;;;;5054422;28;20029;-71
2023/09/14 11:55:22;;;;;;;6.35;1.50;;;;;;;;;;5054468;28;20038;-70
2023/09/14 11:57:48;;;;;;;2.45;1.23;;;;;;;;;;5051946;28;20025;-71
2023/09/14 12:00:14;;;;;;;3.47;1.20;;;;;;;;;;5036159;28;20029;-72
2023/09/14 12:02:40;;;;;;;6.57;1.80;;;;;;;;;;5048881;28;20047;-72
2023/09/14 12:05:09;;;;;;;3.35;1.55;;;;;;;;;;5054998;28;20478;-72
2023/09/14 12:07:34;;;;;;;1.73;1.23;;;;;;;;;;5054328;28;20039;-71
2023/09/14 12:10:01;;;;;;;1.92;1.17;;;;;;;;;;5034556;28;20449;-72
2023/09/14 12:12:28;;;;;;;7.35;1.70;;;;;;;;;;5035846;28;20029;-69
2023/09/14 12:14:53;;;;;;;3.70;1.33;;;;;;;;;;5041236;28;20072;-69
2023/09/14 12:17:26;;;;;;;4.15;1.52;;;;;;;;;;5051081;28;20033;-69
2023/09/14 12:19:56;;;;;;;2.35;1.42;;;;;;;;;;5050996;28;20029;-69
2023/09/14 12:22:23;;;;;;;1.92;1.20;;;;;;;;;;5051479;28;20041;-69
2023/09/14 12:24:49;;;;;;;6.25;2.00;;;;;;;;;;5042248;28;20028;-69
2023/09/14 12:27:16;;;;;;;3.58;1.45;;;;;;;;;;5055798;28;20021;-69
2023/09/14 12:29:43;;;;;;;3.42;1.95;;;;;;;;;;5054262;28;20020;-69
2023/09/14 12:32:09;;;;;;;5.38;1.63;;;;;;;;;;5054109;28;20105;-68
2023/09/14 12:34:34;;;;;;;2.72;1.38;;;;;;;;;;5054283;28;20466;-69
2023/09/14 12:37:00;;;;;;;2.55;1.48;;;;;;;;;;5055904;28;20394;-70
2023/09/14 12:39:26;;;;;;;4.90;1.10;;;;;;;;;;5054552;28;20033;-70
2023/09/14 12:41:53;;;;;;;2.38;1.20;;;;;;;;;;5054095;28;20501;-70
2023/09/14 12:44:23;;;;;;;2.75;1.70;;;;;;;;;;5053815;28;20040;-70
2023/09/14 12:46:50;;;;;;;2.15;1.10;;;;;;;;;;5053912;28;20108;-71
2023/09/14 12:49:16;;;;;;;1.90;1.30;;;;;;;;;;5044740;28;20028;-73
2023/09/14 12:51:48;;;;;;;2.28;1.30;;;;;;;;;;5027709;28;20100;-71
2023/09/14 12:54:16;;;;;;;3.60;1.98;;;;;;;;;;5051549;28;20021;-71
2023/09/14 12:56:42;;;;;;;2.60;1.15;;;;;;;;;;5048549;28;20040;-71
2023/09/14 12:59:07;;;;;;;3.80;1.60;;;;;;;;;;5034079;28;20033;-71
2023/09/14 13:01:38;;;;;;;2.60;1.15;;;;;;;;;;5034744;28;20036;-70
2023/09/14 13:04:03;;;;;;;3.42;1.35;;;;;;;;;;5034537;28;20132;-70
2023/09/14 13:06:32;;;;;;;4.13;1.13;;;;;;;;;;5033851;28;20063;-70
2023/09/14 13:08:57;;;;;;;5.93;1.45;;;;;;;;;;5033798;28;20030;-71
2023/09/14 13:11:24;;;;;;;4.10;1.45;;;;;;;;;;5035105;28;20100;-70
2023/09/14 13:13:49;;;;;;;2.38;1.48;;;;;;;;;;5033993;28;20464;-71
2023/09/14 13:16:16;;;;;;;4.05;1.30;;;;;;;;;;5035300;28;20040;-70
2023/09/14 13:18:41;;;;;;;3.05;1.30;;;;;;;;;;5051483;28;20017;-71
2023/09/14 13:21:07;;;;;;;3.03;1.05;;;;;;;;;;5035795;28;20031;-70
2023/09/14 13:23:32;;;;;;;3.38;1.35;;;;;;;;;;5033194;28;20479;-71
2023/09/14 13:25:58;;;;;;;3.00;1.52;;;;;;;;;;5063754;22;20112;-70
2023/09/14 13:28:24;;;;;;;3.85;1.75;;;;;;;;;;5054381;28;20025;-71
2023/09/14 13:30:50;;;;;;;7.32;1.60;;;;;;;;;;5054634;28;20029;-70
2023/09/14 13:33:16;;;;;;;4.53;1.75;;;;;;;;;;5053478;28;20086;-70
2023/09/14 13:35:41;;;;;;;2.67;1.35;;;;;;;;;;5054737;28;20471;-70
2023/09/14 13:38:08;;;;;;;4.18;1.55;;;;;;;;;;5053862;28;20028;-70
2023/09/14 13:40:33;;;;;;;7.22;1.63;;;;;;;;;;5054742;28;20029;-69
2023/09/14 13:43:00;;;;;;;4.32;1.65;;;;;;;;;;5053339;28;20086;-70
2023/09/14 13:45:29;;;;;;;6.15;1.73;;;;;;;;;;5053313;28;20032;-70
2023/09/14 13:47:55;;;;;;;2.15;1.40;;;;;;;;;;5054327;28;20024;-68
2023/09/14 13:50:22;;;;;;;2.35;1.23;;;;;;;;;;5054550;28;20473;-68
2023/09/14 13:52:48;;;;;;;4.22;1.50;;;;;;;;;;5054204;28;20471;-68
2023/09/14 13:55:15;;;;;;;2.47;1.40;;;;;;;;;;5054533;28;20029;-68
2023/09/14 13:57:41;;;;;;;16.10;1.98;;;;;;;;;;5054384;28;20474;-68
2023/09/14 14:00:10;;;;;;;3.60;1.40;;;;;;;;;;5053168;28;20082;-68
2023/09/14 14:03:01;;;;;;;3.67;1.60;;;;;;;;;;5054074;28;20402;-68
2023/09/14 14:05:27;;;;;;;2.58;1.63;;;;;;;;;;5054520;28;20039;-68
2023/09/14 14:07:52;;;;;;;2.78;1.30;;;;;;;;;;5054251;28;20021;-68
2023/09/14 14:10:17;;;;;;;3.53;1.30;;;;;;;;;;5054260;28;20406;-69
2023/09/14 14:12:43;;;;;;;2.90;1.33;;;;;;;;;;5053902;28;20048;-68
2023/09/14 14:15:08;;;;;;;3.53;1.52;;;;;;;;;;5054046;28;20021;-68
2023/09/14 14:17:35;;;;;;;1.95;1.20;;;;;;;;;;5053979;28;20029;-68
2023/09/14 14:20:00;;;;;;;2.90;1.13;;;;;;;;;;5053305;28;20052;-68
2023/09/14 14:22:26;;;;;;;3.83;1.48;;;;;;;;;;5054018;28;20025;-68
2023/09/14 14:24:51;;;;;;;3.95;1.40;;;;;;;;;;5053357;28;20029;-69
2023/09/14 14:27:18;;;;;;;1.80;1.33;;;;;;;;;;5053963;28;20021;-68
2023/09/14 14:29:44;;;;;;;2.80;1.27;;;;;;;;;;5054320;28;20040;-68
2023/09/14 14:32:09;;;;;;;4.50;1.23;;;;;;;;;;5043256;28;20037;-69
2023/09/14 14:34:34;;;;;;;8.80;1.77;;;;;;;;;;5044613;28;20029;-69
2023/09/14 14:36:59;;;;;;;3.33;1.20;;;;;;;;;;5050235;28;20043;-68